Time;durP1;ratioP1;P1;durP2;ratioP2;P2;SDS_P1;SDS_P2;PMS_P1;PMS_P2;Temp;Humidity;BMP_temperature;BMP_pressure;BME280_temperature;BME280_humidity;BME280_pressure;Samples;Min_cycle;Max_cycle;Signal;HPM_P1;HPM_P2
2022/10/09 00:01:21;;;;;;;60.13;17.77;;;;;;;;;;4920641;29;20412;-66
2022/10/09 00:03:48;;;;;;;83.30;19.08;;;;;;;;;;4920722;29;20067;-63
2022/10/09 00:06:33;;;;;;;68.13;17.92;;;;;;;;;;4920306;29;20048;-63
2022/10/09 00:09:01;;;;;;;86.70;19.08;;;;;;;;;;4920084;29;20485;-63
2022/10/09 00:11:28;;;;;;;75.18;18.45;;;;;;;;;;4931154;29;20043;-63
2022/10/09 00:13:55;;;;;;;65.05;18.20;;;;;;;;;;4916554;29;20075;-64
2022/10/09 00:16:22;;;;;;;96.47;21.77;;;;;;;;;;4898343;29;20071;-63
2022/10/09 00:18:49;;;;;;;66.47;19.75;;;;;;;;;;4919690;29;20044;-63
2022/10/09 00:21:21;;;;;;;78.63;23.05;;;;;;;;;;4919997;29;20043;-64
2022/10/09 00:23:49;;;;;;;93.38;22.20;;;;;;;;;;4918108;29;20519;-65
2022/10/09 00:26:15;;;;;;;99.10;26.25;;;;;;;;;;4915789;29;20059;-66
2022/10/09 00:28:42;;;;;;;76.75;23.95;;;;;;;;;;4918923;29;20052;-64
2022/10/09 00:31:09;;;;;;;104.22;27.88;;;;;;;;;;4908173;29;20058;-63
2022/10/09 00:33:36;;;;;;;108.55;28.58;;;;;;;;;;4926435;29;20048;-63
2022/10/09 00:36:08;;;;;;;112.43;29.05;;;;;;;;;;4926062;29;20051;-64
2022/10/09 00:38:34;;;;;;;95.18;27.63;;;;;;;;;;4916172;29;20737;-64
2022/10/09 00:41:01;;;;;;;103.78;31.52;;;;;;;;;;4915970;29;20052;-64
2022/10/09 00:43:45;;;;;;;97.65;31.25;;;;;;;;;;4902534;29;20058;-64
2022/10/09 00:46:17;;;;;;;117.35;31.90;;;;;;;;;;4925957;29;20078;-65
2022/10/09 00:48:44;;;;;;;118.18;33.80;;;;;;;;;;4925009;29;20048;-65
2022/10/09 00:51:10;;;;;;;117.03;34.63;;;;;;;;;;4899165;29;20067;-65
2022/10/09 00:53:37;;;;;;;94.40;32.88;;;;;;;;;;4916853;29;20036;-65
2022/10/09 00:56:03;;;;;;;122.40;32.10;;;;;;;;;;4915655;29;20122;-65
2022/10/09 00:58:30;;;;;;;105.53;33.85;;;;;;;;;;4919864;29;20509;-65
2022/10/09 01:00:56;;;;;;;111.22;33.40;;;;;;;;;;4920239;29;20045;-66
2022/10/09 01:03:23;;;;;;;99.78;32.58;;;;;;;;;;4898575;29;20520;-66
2022/10/09 01:05:49;;;;;;;100.63;31.30;;;;;;;;;;4901024;29;20115;-65
2022/10/09 01:08:24;;;;;;;114.78;33.55;;;;;;;;;;4914784;29;20766;-65
2022/10/09 01:11:00;;;;;;;97.20;34.15;;;;;;;;;;4898734;29;20469;-66
2022/10/09 01:13:49;;;;;;;88.80;33.08;;;;;;;;;;4922730;29;20123;-65
2022/10/09 01:16:21;;;;;;;110.28;31.98;;;;;;;;;;4922427;29;20036;-64
2022/10/09 01:18:52;;;;;;;91.65;31.38;;;;;;;;;;4922491;29;20078;-62
2022/10/09 01:21:19;;;;;;;95.47;29.70;;;;;;;;;;4922710;29;20515;-64
2022/10/09 01:23:52;;;;;;;87.80;28.77;;;;;;;;;;4920114;29;20036;-63
2022/10/09 01:26:48;;;;;;;92.67;29.47;;;;;;;;;;4901062;29;20087;-64
2022/10/09 01:29:15;;;;;;;107.20;29.40;;;;;;;;;;4914559;29;20293;-64
2022/10/09 01:31:44;;;;;;;86.18;29.17;;;;;;;;;;4930510;29;20048;-65
2022/10/09 01:34:11;;;;;;;117.22;29.92;;;;;;;;;;4912069;29;20051;-65
2022/10/09 01:36:38;;;;;;;71.93;26.98;;;;;;;;;;4928433;29;20036;-64
2022/10/09 01:39:07;;;;;;;76.25;27.40;;;;;;;;;;4922539;29;20049;-64
2022/10/09 01:41:34;;;;;;;96.13;27.15;;;;;;;;;;4918621;29;20058;-68
2022/10/09 01:44:00;;;;;;;98.40;26.75;;;;;;;;;;4917967;29;20173;-68
2022/10/09 01:46:28;;;;;;;80.68;25.83;;;;;;;;;;4930502;29;20055;-68
2022/10/09 01:49:04;;;;;;;77.80;22.73;;;;;;;;;;4926305;29;20131;-68
2022/10/09 01:51:35;;;;;;;76.00;22.90;;;;;;;;;;4921885;29;20036;-67
2022/10/09 01:54:04;;;;;;;101.10;23.23;;;;;;;;;;4921095;29;20485;-68
2022/10/09 01:56:32;;;;;;;77.22;22.08;;;;;;;;;;4915877;29;20044;-67
2022/10/09 01:59:02;;;;;;;74.40;22.83;;;;;;;;;;4933830;29;20043;-67
2022/10/09 02:01:34;;;;;;;81.32;23.83;;;;;;;;;;4921368;29;20052;-68
2022/10/09 02:04:04;;;;;;;69.78;23.75;;;;;;;;;;4922314;29;20135;-68
2022/10/09 02:06:31;;;;;;;73.85;23.45;;;;;;;;;;4922528;29;20042;-66
2022/10/09 02:08:58;;;;;;;98.10;25.75;;;;;;;;;;4921286;29;20036;-67
2022/10/09 02:11:26;;;;;;;69.57;23.85;;;;;;;;;;4933585;29;20046;-66
2022/10/09 02:13:53;;;;;;;70.22;24.60;;;;;;;;;;4918837;29;20520;-67
2022/10/09 02:16:23;;;;;;;74.18;22.20;;;;;;;;;;4921358;29;20111;-67
2022/10/09 02:18:57;;;;;;;62.30;21.35;;;;;;;;;;4921825;29;20108;-64
2022/10/09 02:21:44;;;;;;;81.97;22.88;;;;;;;;;;4903601;29;20052;-63
2022/10/09 02:24:14;;;;;;;71.05;23.30;;;;;;;;;;4921677;29;20035;-64
2022/10/09 02:26:41;;;;;;;77.60;23.40;;;;;;;;;;4919119;29;20389;-62
2022/10/09 02:29:08;;;;;;;102.22;23.85;;;;;;;;;;4929641;29;20039;-66
2022/10/09 02:31:36;;;;;;;69.63;20.85;;;;;;;;;;4929934;29;20047;-65
2022/10/09 02:34:04;;;;;;;98.63;22.77;;;;;;;;;;4924737;29;20147;-68
2022/10/09 02:36:31;;;;;;;65.40;20.17;;;;;;;;;;4922308;29;20036;-68
2022/10/09 02:38:58;;;;;;;55.72;18.92;;;;;;;;;;4920932;29;20056;-67
2022/10/09 02:41:25;;;;;;;74.95;19.55;;;;;;;;;;4917161;29;20046;-66
2022/10/09 02:43:51;;;;;;;64.15;17.98;;;;;;;;;;4918555;29;20040;-64
2022/10/09 02:46:18;;;;;;;67.18;17.25;;;;;;;;;;4928159;29;20127;-64
2022/10/09 02:48:45;;;;;;;99.60;20.20;;;;;;;;;;4926243;29;20055;-64
2022/10/09 02:51:11;;;;;;;75.05;17.52;;;;;;;;;;4921055;29;20090;-64
2022/10/09 02:53:38;;;;;;;58.08;17.05;;;;;;;;;;4901199;29;20059;-63
2022/10/09 02:56:04;;;;;;;78.10;17.92;;;;;;;;;;4916837;29;20770;-64
2022/10/09 02:58:31;;;;;;;55.83;18.00;;;;;;;;;;4921390;29;20044;-65
2022/10/09 03:00:58;;;;;;;67.88;18.17;;;;;;;;;;4921266;29;20074;-68
2022/10/09 03:03:25;;;;;;;51.08;16.17;;;;;;;;;;4921067;29;20048;-67
2022/10/09 03:06:11;;;;;;;70.45;17.63;;;;;;;;;;4919537;29;20684;-67
2022/10/09 03:08:38;;;;;;;67.40;18.83;;;;;;;;;;4931582;29;20044;-67
2022/10/09 03:11:05;;;;;;;71.63;17.73;;;;;;;;;;4916652;29;20048;-66
2022/10/09 03:13:32;;;;;;;57.33;16.60;;;;;;;;;;4931869;29;20052;-64
2022/10/09 03:16:06;;;;;;;62.67;17.02;;;;;;;;;;4923855;29;20040;-65
2022/10/09 03:18:33;;;;;;;46.50;16.70;;;;;;;;;;4920377;29;20039;-65
2022/10/09 03:20:59;;;;;;;94.80;19.40;;;;;;;;;;4919838;29;20050;-65
2022/10/09 03:23:26;;;;;;;70.25;17.48;;;;;;;;;;4916570;29;20122;-63
2022/10/09 03:25:56;;;;;;;45.70;15.95;;;;;;;;;;4923184;29;20055;-68
2022/10/09 03:28:23;;;;;;;70.90;17.65;;;;;;;;;;4922425;29;20040;-68
2022/10/09 03:30:49;;;;;;;60.47;17.13;;;;;;;;;;4925724;29;20052;-68
2022/10/09 03:33:16;;;;;;;67.10;16.85;;;;;;;;;;4920960;29;20051;-65
2022/10/09 03:35:43;;;;;;;47.70;15.65;;;;;;;;;;4918343;29;20122;-64
2022/10/09 03:38:10;;;;;;;90.68;17.65;;;;;;;;;;4915588;29;20066;-64
2022/10/09 03:40:36;;;;;;;53.80;16.42;;;;;;;;;;4920168;29;20052;-65
2022/10/09 03:43:03;;;;;;;56.22;14.05;;;;;;;;;;4920301;29;20390;-64
2022/10/09 03:45:29;;;;;;;58.70;15.23;;;;;;;;;;4920783;29;20048;-63
2022/10/09 03:47:56;;;;;;;65.03;14.35;;;;;;;;;;4930378;29;20042;-64
2022/10/09 03:50:23;;;;;;;74.00;15.73;;;;;;;;;;4915639;29;20052;-64
2022/10/09 03:52:49;;;;;;;81.22;16.80;;;;;;;;;;4917526;29;20064;-63
2022/10/09 03:55:16;;;;;;;68.82;15.77;;;;;;;;;;4920899;29;20432;-64
2022/10/09 03:57:43;;;;;;;49.85;14.63;;;;;;;;;;4920762;29;20040;-64
2022/10/09 04:00:10;;;;;;;69.05;15.43;;;;;;;;;;4899186;29;20048;-64
2022/10/09 04:02:36;;;;;;;73.25;15.07;;;;;;;;;;4916783;29;20040;-67
2022/10/09 04:05:03;;;;;;;48.92;13.80;;;;;;;;;;4916379;29;20044;-67
2022/10/09 04:07:29;;;;;;;67.05;15.18;;;;;;;;;;4920363;29;20040;-66
2022/10/09 04:09:56;;;;;;;71.10;15.45;;;;;;;;;;4926751;29;20445;-66
2022/10/09 04:12:22;;;;;;;44.22;12.10;;;;;;;;;;4927865;29;20125;-66
2022/10/09 04:14:49;;;;;;;80.78;15.45;;;;;;;;;;4917661;29;20052;-67
2022/10/09 04:17:15;;;;;;;91.50;15.02;;;;;;;;;;4915160;29;20040;-66
2022/10/09 04:19:42;;;;;;;56.03;12.52;;;;;;;;;;4918336;29;20493;-66
2022/10/09 04:22:08;;;;;;;61.13;13.90;;;;;;;;;;4920420;29;20044;-64
2022/10/09 04:24:35;;;;;;;79.07;15.43;;;;;;;;;;4919654;29;20071;-64
2022/10/09 04:27:01;;;;;;;48.72;13.30;;;;;;;;;;4908350;29;20054;-67
2022/10/09 04:29:28;;;;;;;53.03;14.77;;;;;;;;;;4921685;29;20783;-67
2022/10/09 04:31:54;;;;;;;76.10;15.30;;;;;;;;;;4899758;29;20103;-66
2022/10/09 04:34:21;;;;;;;85.13;15.75;;;;;;;;;;4920099;29;20048;-66
2022/10/09 04:36:47;;;;;;;37.67;14.10;;;;;;;;;;4920338;29;20040;-64
2022/10/09 04:39:14;;;;;;;90.55;18.05;;;;;;;;;;4919750;29;20508;-66
2022/10/09 04:41:40;;;;;;;50.88;14.60;;;;;;;;;;4916585;29;20563;-66
2022/10/09 04:44:06;;;;;;;69.88;15.80;;;;;;;;;;4898920;29;20489;-68
2022/10/09 04:46:33;;;;;;;85.20;15.75;;;;;;;;;;4911554;29;20048;-67
2022/10/09 04:49:00;;;;;;;64.28;15.10;;;;;;;;;;4910529;29;20163;-67
2022/10/09 04:51:26;;;;;;;50.08;14.38;;;;;;;;;;4931223;29;20062;-66
2022/10/09 04:53:54;;;;;;;73.82;16.13;;;;;;;;;;4933014;29;20044;-66
2022/10/09 04:56:26;;;;;;;60.88;16.13;;;;;;;;;;4931651;29;20073;-66
2022/10/09 04:58:52;;;;;;;40.05;15.05;;;;;;;;;;4921362;29;20044;-66
2022/10/09 05:01:20;;;;;;;69.43;18.52;;;;;;;;;;4901303;29;20467;-67
2022/10/09 05:03:47;;;;;;;49.50;16.42;;;;;;;;;;4923687;29;20051;-67
2022/10/09 05:06:14;;;;;;;69.25;18.13;;;;;;;;;;4923278;29;20127;-68
2022/10/09 05:08:41;;;;;;;64.63;17.80;;;;;;;;;;4920114;29;20040;-67
2022/10/09 05:11:10;;;;;;;60.28;17.75;;;;;;;;;;4919155;29;20068;-68
2022/10/09 05:13:37;;;;;;;59.97;17.98;;;;;;;;;;4922398;29;20070;-68
2022/10/09 05:16:05;;;;;;;105.53;21.17;;;;;;;;;;4921615;29;20052;-68
2022/10/09 05:18:31;;;;;;;68.93;16.25;;;;;;;;;;4922291;29;20789;-68
2022/10/09 05:20:58;;;;;;;65.20;16.98;;;;;;;;;;4921026;29;20046;-67
2022/10/09 05:23:24;;;;;;;97.82;18.85;;;;;;;;;;4928776;29;20052;-67
2022/10/09 05:25:54;;;;;;;63.03;16.38;;;;;;;;;;4912873;29;20102;-67
2022/10/09 05:28:21;;;;;;;54.60;16.55;;;;;;;;;;4923461;29;20060;-67
2022/10/09 05:30:48;;;;;;;55.08;17.00;;;;;;;;;;4923251;29;20040;-67
2022/10/09 05:33:15;;;;;;;60.00;16.42;;;;;;;;;;4923170;29;20040;-66
2022/10/09 05:35:49;;;;;;;55.63;16.00;;;;;;;;;;4919933;29;20054;-67
2022/10/09 05:38:15;;;;;;;100.05;17.10;;;;;;;;;;4917849;29;20060;-65
2022/10/09 05:40:49;;;;;;;46.40;15.65;;;;;;;;;;4922554;29;20135;-65
2022/10/09 05:43:15;;;;;;;55.78;14.80;;;;;;;;;;4923041;29;20040;-65
2022/10/09 05:45:42;;;;;;;57.17;11.95;;;;;;;;;;4925086;29;20114;-65
2022/10/09 05:48:08;;;;;;;60.03;12.27;;;;;;;;;;4933334;29;20449;-65
2022/10/09 05:50:35;;;;;;;51.50;12.05;;;;;;;;;;4918619;29;20047;-65
2022/10/09 05:53:01;;;;;;;47.17;11.05;;;;;;;;;;4929743;29;20596;-65
2022/10/09 05:55:28;;;;;;;47.92;9.82;;;;;;;;;;4905549;29;20052;-66
2022/10/09 05:57:54;;;;;;;41.38;9.98;;;;;;;;;;4922604;29;20067;-67
2022/10/09 06:00:21;;;;;;;84.55;12.10;;;;;;;;;;4905135;29;20130;-64
2022/10/09 06:02:47;;;;;;;51.63;10.20;;;;;;;;;;4932608;29;20040;-68
2022/10/09 06:05:14;;;;;;;65.55;9.90;;;;;;;;;;4918306;29;20099;-69
2022/10/09 06:07:41;;;;;;;73.70;9.75;;;;;;;;;;4921007;29;20488;-68
2022/10/09 06:10:07;;;;;;;66.25;9.43;;;;;;;;;;4922438;29;20044;-65
2022/10/09 06:12:34;;;;;;;40.80;7.18;;;;;;;;;;4922573;29;20120;-70
2022/10/09 06:15:00;;;;;;;49.10;9.25;;;;;;;;;;4919717;29;20036;-68
2022/10/09 06:17:27;;;;;;;46.60;7.88;;;;;;;;;;4917272;29;20051;-64
2022/10/09 06:19:53;;;;;;;77.07;10.25;;;;;;;;;;4919618;29;20540;-69
2022/10/09 06:22:20;;;;;;;65.80;8.82;;;;;;;;;;4927958;29;20039;-66
2022/10/09 06:24:46;;;;;;;34.42;6.68;;;;;;;;;;4929273;29;20048;-65
2022/10/09 06:27:13;;;;;;;47.78;6.32;;;;;;;;;;4932189;29;20063;-68
2022/10/09 06:29:39;;;;;;;60.38;8.40;;;;;;;;;;4918061;29;20560;-67
2022/10/09 06:32:06;;;;;;;51.58;6.90;;;;;;;;;;4917563;29;20099;-67
2022/10/09 06:34:32;;;;;;;31.67;5.65;;;;;;;;;;4922011;29;20460;-67
2022/10/09 06:36:58;;;;;;;52.65;8.23;;;;;;;;;;4921087;29;20444;-67
2022/10/09 06:39:25;;;;;;;31.35;6.32;;;;;;;;;;4921438;29;20141;-67
2022/10/09 06:41:52;;;;;;;47.53;8.55;;;;;;;;;;4919967;29;20054;-67
2022/10/09 06:44:48;;;;;;;41.00;7.97;;;;;;;;;;4915895;29;20051;-67
2022/10/09 06:47:14;;;;;;;68.95;9.00;;;;;;;;;;4930652;29;20048;-68
2022/10/09 06:49:41;;;;;;;56.78;7.60;;;;;;;;;;4920834;29;20069;-68
2022/10/09 06:52:07;;;;;;;43.38;7.10;;;;;;;;;;4921902;29;20055;-67
2022/10/09 06:54:34;;;;;;;42.03;7.15;;;;;;;;;;4921252;29;20051;-67
2022/10/09 06:57:00;;;;;;;55.47;7.32;;;;;;;;;;4900696;29;20511;-67
2022/10/09 06:59:27;;;;;;;65.75;12.82;;;;;;;;;;4931469;29;20054;-67
2022/10/09 07:01:55;;;;;;;33.33;6.93;;;;;;;;;;4919676;29;20048;-68
2022/10/09 07:04:22;;;;;;;58.50;9.48;;;;;;;;;;4921214;29;20064;-67
2022/10/09 07:06:49;;;;;;;38.20;6.85;;;;;;;;;;4920829;29;20134;-68
2022/10/09 07:09:15;;;;;;;55.30;11.52;;;;;;;;;;4900265;29;20485;-69
2022/10/09 07:11:43;;;;;;;54.15;8.70;;;;;;;;;;4917720;29;20493;-67
2022/10/09 07:14:10;;;;;;;46.85;7.80;;;;;;;;;;4916844;29;20048;-67
2022/10/09 07:16:38;;;;;;;35.20;5.78;;;;;;;;;;4921212;29;20108;-67
2022/10/09 07:19:07;;;;;;;60.70;6.65;;;;;;;;;;4921160;29;20060;-67
2022/10/09 07:21:34;;;;;;;37.95;6.35;;;;;;;;;;4927253;29;20139;-67
2022/10/09 07:24:00;;;;;;;45.88;8.02;;;;;;;;;;4905753;29;20036;-67
2022/10/09 07:26:29;;;;;;;55.17;7.32;;;;;;;;;;4915716;29;20062;-68
2022/10/09 07:28:56;;;;;;;31.83;5.38;;;;;;;;;;4918307;29;20389;-68
2022/10/09 07:31:22;;;;;;;41.65;5.60;;;;;;;;;;4921007;29;20079;-67
2022/10/09 07:33:50;;;;;;;43.97;6.15;;;;;;;;;;4903920;29;20130;-71
2022/10/09 07:36:17;;;;;;;64.78;7.32;;;;;;;;;;4920233;29;20118;-66
2022/10/09 07:38:43;;;;;;;40.88;5.55;;;;;;;;;;4917331;29;20492;-68
2022/10/09 07:41:11;;;;;;;59.55;8.55;;;;;;;;;;4916553;29;20070;-67
2022/10/09 07:43:38;;;;;;;36.67;6.70;;;;;;;;;;4920737;29;20749;-64
2022/10/09 07:46:06;;;;;;;44.22;6.80;;;;;;;;;;4926102;29;20055;-64
2022/10/09 07:48:34;;;;;;;50.28;6.70;;;;;;;;;;4928434;29;20059;-64
2022/10/09 07:51:12;;;;;;;32.15;5.97;;;;;;;;;;4920040;29;20106;-67
2022/10/09 07:53:38;;;;;;;46.33;8.60;;;;;;;;;;4931463;29;20044;-66
2022/10/09 07:56:05;;;;;;;66.45;7.97;;;;;;;;;;4916851;29;20056;-67
2022/10/09 07:58:32;;;;;;;32.30;5.30;;;;;;;;;;4920975;29;20040;-68
2022/10/09 08:01:02;;;;;;;23.42;4.15;;;;;;;;;;4920785;29;20079;-67
2022/10/09 08:03:29;;;;;;;56.35;7.13;;;;;;;;;;4899226;29;20048;-66
2022/10/09 08:05:55;;;;;;;30.45;6.40;;;;;;;;;;4919034;29;20067;-69
2022/10/09 08:08:22;;;;;;;56.22;7.85;;;;;;;;;;4915948;29;20050;-67
2022/10/09 08:10:49;;;;;;;63.80;7.18;;;;;;;;;;4919079;29;20044;-69
2022/10/09 08:13:15;;;;;;;44.20;6.15;;;;;;;;;;4900307;29;20457;-67
2022/10/09 08:15:42;;;;;;;35.40;5.20;;;;;;;;;;4916392;29;20131;-67
2022/10/09 08:18:09;;;;;;;63.28;7.50;;;;;;;;;;4920144;29;20051;-67
2022/10/09 08:20:36;;;;;;;35.80;5.18;;;;;;;;;;4934869;29;20464;-67
2022/10/09 08:23:03;;;;;;;42.90;6.50;;;;;;;;;;4933676;29;20040;-68
2022/10/09 08:25:32;;;;;;;48.92;6.55;;;;;;;;;;4939701;29;20136;-68
2022/10/09 08:27:59;;;;;;;45.88;6.93;;;;;;;;;;4933135;29;20044;-66
2022/10/09 08:30:25;;;;;;;30.45;5.32;;;;;;;;;;4924215;29;20059;-67
2022/10/09 08:32:52;;;;;;;39.75;5.55;;;;;;;;;;4921311;29;20087;-69
2022/10/09 08:35:18;;;;;;;81.95;8.80;;;;;;;;;;4919563;29;20044;-70
2022/10/09 08:37:45;;;;;;;74.13;7.22;;;;;;;;;;4922439;29;20068;-68
2022/10/09 08:40:21;;;;;;;63.75;7.10;;;;;;;;;;4923299;29;20436;-69
2022/10/09 08:42:57;;;;;;;33.13;4.80;;;;;;;;;;4923928;29;20036;-67
2022/10/09 08:45:23;;;;;;;55.22;6.25;;;;;;;;;;4923510;29;20130;-73
2022/10/09 08:47:55;;;;;;;47.50;5.68;;;;;;;;;;4933940;29;20043;-74
2022/10/09 08:50:24;;;;;;;52.13;5.78;;;;;;;;;;4925923;29;20048;-74
2022/10/09 08:52:54;;;;;;;54.42;6.22;;;;;;;;;;4921637;29;20543;-74
2022/10/09 08:55:23;;;;;;;37.75;4.85;;;;;;;;;;4923525;29;20454;-74
2022/10/09 08:57:51;;;;;;;38.90;6.57;;;;;;;;;;4923505;29;20099;-74
2022/10/09 09:00:18;;;;;;;45.25;6.35;;;;;;;;;;4903973;29;20050;-74
2022/10/09 09:02:51;;;;;;;52.00;5.85;;;;;;;;;;4934205;29;20079;-74
2022/10/09 09:05:18;;;;;;;85.20;9.43;;;;;;;;;;4919103;29;20123;-74
2022/10/09 09:07:44;;;;;;;47.72;6.10;;;;;;;;;;4922284;29;20056;-74
2022/10/09 09:10:15;;;;;;;40.13;5.05;;;;;;;;;;4931570;29;20039;-75
2022/10/09 09:12:50;;;;;;;54.10;6.43;;;;;;;;;;4929487;29;20130;-74
2022/10/09 09:15:17;;;;;;;;;;;;;;;;;;4924612;29;20043;-74
2022/10/09 09:17:55;;;;;;;36.90;5.15;;;;;;;;;;4934156;29;20409;-74
2022/10/09 09:20:28;;;;;;;62.92;6.40;;;;;;;;;;4931043;29;20047;-74
2022/10/09 09:22:55;;;;;;;24.77;4.00;;;;;;;;;;4921259;29;20040;-75
2022/10/09 09:25:27;;;;;;;64.32;6.65;;;;;;;;;;4923029;29;20048;-74
2022/10/09 09:27:56;;;;;;;36.15;4.20;;;;;;;;;;4928649;29;20044;-75
2022/10/09 09:30:25;;;;;;;52.47;5.55;;;;;;;;;;4931868;29;20464;-75
2022/10/09 09:33:01;;;;;;;43.28;4.65;;;;;;;;;;4920746;29;20043;-74
2022/10/09 09:35:34;;;;;;;27.08;6.05;;;;;;;;;;4933946;29;20055;-74
2022/10/09 09:38:01;;;;;;;67.07;6.97;;;;;;;;;;4919618;29;20386;-75
2022/10/09 09:40:32;;;;;;;26.08;4.30;;;;;;;;;;4922958;29;20052;-74
2022/10/09 09:43:20;;;;;;;44.53;5.65;;;;;;;;;;4923197;29;20040;-75
2022/10/09 09:45:48;;;;;;;42.28;6.47;;;;;;;;;;4925759;29;20036;-75
2022/10/09 09:48:16;;;;;;;59.10;7.50;;;;;;;;;;4932834;29;20047;-75
2022/10/09 09:50:42;;;;;;;46.40;4.72;;;;;;;;;;4916388;29;20043;-75
2022/10/09 09:53:31;;;;;;;44.13;6.07;;;;;;;;;;4918240;29;20051;-74
2022/10/09 09:55:57;;;;;;;44.58;5.97;;;;;;;;;;4920331;29;20044;-74
2022/10/09 09:58:31;;;;;;;36.80;5.10;;;;;;;;;;4923040;29;20040;-75
2022/10/09 10:01:00;;;;;;;68.20;6.82;;;;;;;;;;4922309;29;20408;-75
2022/10/09 10:03:26;;;;;;;47.63;5.97;;;;;;;;;;4921297;29;20504;-75
2022/10/09 10:05:53;;;;;;;49.72;6.10;;;;;;;;;;4919317;29;20408;-75
2022/10/09 10:08:27;;;;;;;47.63;5.85;;;;;;;;;;4916927;29;20040;-75
2022/10/09 10:11:01;;;;;;;37.63;4.32;;;;;;;;;;4920167;29;20465;-74
2022/10/09 10:13:31;;;;;;;31.40;5.65;;;;;;;;;;4922363;29;20076;-74
2022/10/09 10:15:57;;;;;;;72.55;7.22;;;;;;;;;;4924624;29;20050;-75
2022/10/09 10:18:27;;;;;;;41.22;4.53;;;;;;;;;;4931160;29;20058;-74
2022/10/09 10:20:54;;;;;;;35.40;4.95;;;;;;;;;;4932350;29;20047;-76
2022/10/09 10:23:30;;;;;;;65.93;6.10;;;;;;;;;;4932888;29;20417;-75
2022/10/09 10:25:57;;;;;;;37.60;4.72;;;;;;;;;;4919957;29;20056;-75
2022/10/09 10:28:26;;;;;;;70.35;7.05;;;;;;;;;;4921647;29;20048;-75
2022/10/09 10:30:55;;;;;;;29.08;3.90;;;;;;;;;;4922214;29;20040;-74
2022/10/09 10:33:24;;;;;;;36.92;4.85;;;;;;;;;;4921873;29;20043;-75
2022/10/09 10:35:51;;;;;;;52.45;6.00;;;;;;;;;;4919042;29;20456;-75
2022/10/09 10:38:33;;;;;;;47.55;5.90;;;;;;;;;;4917027;29;20159;-74
2022/10/09 10:41:09;;;;;;;49.78;6.00;;;;;;;;;;4918873;29;20143;-74
2022/10/09 10:44:08;;;;;;;18.20;3.85;;;;;;;;;;4932367;29;20051;-74
2022/10/09 10:46:40;;;;;;;35.95;5.55;;;;;;;;;;4855197;29;20049;-75
2022/10/09 10:49:09;;;;;;;37.33;5.50;;;;;;;;;;4839757;29;20053;-74
2022/10/09 10:51:54;;;;;;;69.47;7.88;;;;;;;;;;4854767;29;20049;-74
2022/10/09 10:54:20;;;;;;;52.28;6.47;;;;;;;;;;4854744;29;20038;-75
2022/10/09 10:56:49;;;;;;;75.10;8.27;;;;;;;;;;4854768;29;20160;-74
2022/10/09 10:59:34;;;;;;;63.63;6.82;;;;;;;;;;4854559;29;20526;-74
2022/10/09 11:02:19;;;;;;;58.92;6.15;;;;;;;;;;4855364;29;20097;-75
2022/10/09 11:04:49;;;;;;;51.28;5.38;;;;;;;;;;4855718;29;20069;-75
2022/10/09 11:07:25;;;;;;;33.70;4.22;;;;;;;;;;4855048;29;20124;-74
2022/10/09 11:10:10;;;;;;;29.73;4.53;;;;;;;;;;4854615;29;20478;-75
2022/10/09 11:12:49;;;;;;;42.78;5.03;;;;;;;;;;4854253;29;20067;-74
2022/10/09 11:15:16;;;;;;;54.00;5.95;;;;;;;;;;4845107;29;20136;-74
2022/10/09 11:18:01;;;;;;;36.10;4.60;;;;;;;;;;4855014;29;20045;-74
2022/10/09 11:20:47;;;;;;;39.60;4.70;;;;;;;;;;4854710;29;20068;-74
2022/10/09 11:23:34;;;;;;;51.42;5.45;;;;;;;;;;4922010;29;20078;-74
2022/10/09 11:26:04;;;;;;;45.05;5.47;;;;;;;;;;4918335;29;20048;-74
2022/10/09 11:28:36;;;;;;;49.22;6.38;;;;;;;;;;4920880;29;20055;-74
2022/10/09 11:31:08;;;;;;;37.15;4.78;;;;;;;;;;4921283;29;20048;-74
2022/10/09 11:33:44;;;;;;;39.80;4.93;;;;;;;;;;4900037;29;20048;-75
2022/10/09 11:36:17;;;;;;;50.95;5.65;;;;;;;;;;4920850;29;20523;-75
2022/10/09 11:39:02;;;;;;;35.05;4.90;;;;;;;;;;4914203;29;20304;-75
2022/10/09 11:41:29;;;;;;;36.72;4.57;;;;;;;;;;4916338;29;20051;-74
2022/10/09 11:43:56;;;;;;;33.08;4.53;;;;;;;;;;4918768;29;20048;-75
2022/10/09 11:46:35;;;;;;;44.53;5.50;;;;;;;;;;4893997;29;20139;-75
2022/10/09 11:49:04;;;;;;;29.77;4.78;;;;;;;;;;4920833;29;20131;-75
2022/10/09 11:51:40;;;;;;;63.22;7.10;;;;;;;;;;4920884;29;20058;-75
2022/10/09 11:54:12;;;;;;;56.83;6.22;;;;;;;;;;4899552;29;20036;-75
2022/10/09 11:56:38;;;;;;;56.55;6.63;;;;;;;;;;4899518;29;20043;-75
2022/10/09 11:59:06;;;;;;;44.08;6.80;;;;;;;;;;4928276;29;20044;-74
2022/10/09 12:01:32;;;;;;;45.67;6.47;;;;;;;;;;4900021;29;20162;-75
2022/10/09 12:04:05;;;;;;;43.33;5.35;;;;;;;;;;4920982;29;20044;-75
2022/10/09 12:06:43;;;;;;;44.40;6.65;;;;;;;;;;4920691;29;20516;-75
2022/10/09 12:09:18;;;;;;;38.05;4.95;;;;;;;;;;4920050;29;20386;-75
2022/10/09 12:11:53;;;;;;;36.65;5.40;;;;;;;;;;4931383;29;20035;-74
2022/10/09 12:14:23;;;;;;;46.90;5.38;;;;;;;;;;4921864;29;20059;-74
2022/10/09 12:16:49;;;;;;;46.95;6.05;;;;;;;;;;4922545;29;20701;-75
2022/10/09 12:19:24;;;;;;;59.85;6.68;;;;;;;;;;4923116;29;20059;-75
2022/10/09 12:21:54;;;;;;;35.53;5.00;;;;;;;;;;4920758;29;20126;-76
2022/10/09 12:24:25;;;;;;;42.20;5.45;;;;;;;;;;4919945;29;20058;-75
2022/10/09 12:26:53;;;;;;;30.90;5.82;;;;;;;;;;4901612;29;20055;-75
2022/10/09 12:29:25;;;;;;;75.93;7.90;;;;;;;;;;4898891;29;20052;-76
2022/10/09 12:31:54;;;;;;;34.97;5.30;;;;;;;;;;4918964;29;20115;-75
2022/10/09 12:34:36;;;;;;;35.13;4.90;;;;;;;;;;4920666;29;20032;-75
2022/10/09 12:37:11;;;;;;;34.85;4.43;;;;;;;;;;4920685;29;20064;-75
2022/10/09 12:39:37;;;;;;;33.63;5.45;;;;;;;;;;4919084;29;20062;-75
2022/10/09 12:42:04;;;;;;;61.58;7.07;;;;;;;;;;4927959;29;20671;-75
2022/10/09 12:44:35;;;;;;;41.30;5.43;;;;;;;;;;4915192;29;20048;-75
2022/10/09 12:47:13;;;;;;;47.83;5.88;;;;;;;;;;4926431;29;20040;-75
2022/10/09 12:49:39;;;;;;;49.88;6.15;;;;;;;;;;4914379;29;20071;-75
2022/10/09 12:52:13;;;;;;;70.75;7.45;;;;;;;;;;4919832;29;20504;-75
2022/10/09 12:54:41;;;;;;;56.20;6.28;;;;;;;;;;4915327;29;20048;-75
2022/10/09 12:57:11;;;;;;;40.10;5.32;;;;;;;;;;4916269;29;20040;-75
2022/10/09 12:59:38;;;;;;;44.80;5.57;;;;;;;;;;4915978;29;20050;-75
2022/10/09 13:02:09;;;;;;;57.35;6.68;;;;;;;;;;4912998;29;20051;-76
2022/10/09 13:04:35;;;;;;;46.05;5.60;;;;;;;;;;4899734;29;20559;-75
2022/10/09 13:07:06;;;;;;;32.92;5.78;;;;;;;;;;4902862;29;20047;-75
2022/10/09 13:09:34;;;;;;;55.08;6.68;;;;;;;;;;4906714;29;20241;-75
2022/10/09 13:12:05;;;;;;;49.50;6.45;;;;;;;;;;4931850;29;20047;-75
2022/10/09 13:14:31;;;;;;;63.70;8.18;;;;;;;;;;4929868;29;20043;-74
2022/10/09 13:16:58;;;;;;;42.05;6.10;;;;;;;;;;4917201;29;20071;-74
2022/10/09 13:19:26;;;;;;;31.08;5.10;;;;;;;;;;4932899;29;20055;-74
2022/10/09 13:21:59;;;;;;;43.65;5.53;;;;;;;;;;4925063;29;20070;-74
2022/10/09 13:24:26;;;;;;;33.67;4.80;;;;;;;;;;4919086;29;20488;-74
2022/10/09 13:26:53;;;;;;;21.95;4.03;;;;;;;;;;4904388;29;20054;-74
2022/10/09 13:29:19;;;;;;;69.68;6.95;;;;;;;;;;4934093;29;20126;-74
2022/10/09 13:31:46;;;;;;;41.50;5.88;;;;;;;;;;4928542;29;20070;-74
2022/10/09 13:34:13;;;;;;;50.15;6.60;;;;;;;;;;4922188;29;20040;-74
2022/10/09 13:36:40;;;;;;;47.53;6.07;;;;;;;;;;4901966;29;20040;-73
2022/10/09 13:39:12;;;;;;;29.38;4.35;;;;;;;;;;4918935;29;20044;-74
2022/10/09 13:41:38;;;;;;;40.03;5.50;;;;;;;;;;4901969;29;20071;-74
2022/10/09 13:44:04;;;;;;;63.75;6.93;;;;;;;;;;4915568;29;20048;-74
2022/10/09 13:46:31;;;;;;;43.97;6.00;;;;;;;;;;4927980;29;20043;-74
2022/10/09 13:48:57;;;;;;;24.85;4.35;;;;;;;;;;4924344;29;20057;-73
2022/10/09 13:51:24;;;;;;;72.40;7.78;;;;;;;;;;4918010;29;20111;-74
2022/10/09 13:53:50;;;;;;;22.20;5.07;;;;;;;;;;4918944;29;20039;-74
2022/10/09 13:56:17;;;;;;;58.25;7.10;;;;;;;;;;4915510;29;20040;-74
2022/10/09 13:58:44;;;;;;;67.90;7.93;;;;;;;;;;4918183;29;20080;-73
2022/10/09 14:01:10;;;;;;;42.17;6.55;;;;;;;;;;4918678;29;20111;-73
2022/10/09 14:03:37;;;;;;;42.05;6.88;;;;;;;;;;4918552;29;20044;-73
2022/10/09 14:06:03;;;;;;;58.17;8.10;;;;;;;;;;4918238;29;20040;-74
2022/10/09 14:08:30;;;;;;;49.67;7.22;;;;;;;;;;4916944;29;20059;-74
2022/10/09 14:11:00;;;;;;;29.02;6.32;;;;;;;;;;4926985;29;20057;-74
2022/10/09 14:13:27;;;;;;;49.00;6.15;;;;;;;;;;4925573;29;20032;-74
2022/10/09 14:15:54;;;;;;;37.67;6.50;;;;;;;;;;4923856;29;20263;-74
2022/10/09 14:18:21;;;;;;;36.75;6.75;;;;;;;;;;4918097;29;20044;-73
2022/10/09 14:20:47;;;;;;;48.13;7.43;;;;;;;;;;4917899;29;20039;-73
2022/10/09 14:23:14;;;;;;;41.03;7.28;;;;;;;;;;4914902;29;20056;-74
2022/10/09 14:25:40;;;;;;;47.17;7.40;;;;;;;;;;4918350;29;20516;-74
2022/10/09 14:28:07;;;;;;;62.97;8.63;;;;;;;;;;4907459;29;20138;-73
2022/10/09 14:30:33;;;;;;;47.90;8.20;;;;;;;;;;4926713;29;20055;-73
2022/10/09 14:33:00;;;;;;;60.20;11.15;;;;;;;;;;4917986;29;20126;-73
2022/10/09 14:35:26;;;;;;;71.35;11.25;;;;;;;;;;4916155;29;20047;-73